sensor_id;sensor_type;location;lat;lon;timestamp;P1;durP1;ratioP1;P2;durP2;ratioP2
13339;SDS011;6739;47.398;8.774;2022-09-21T00:00:25;2.53;;;2.00;;
13339;SDS011;6739;47.398;8.774;2022-09-21T00:02:54;2.33;;;1.80;;
13339;SDS011;6739;47.398;8.774;2022-09-21T00:05:23;3.10;;;1.90;;
13339;SDS011;6739;47.398;8.774;2022-09-21T00:07:51;3.30;;;2.33;;
13339;SDS011;6739;47.398;8.774;2022-09-21T00:10:19;3.27;;;2.20;;
13339;SDS011;6739;47.398;8.774;2022-09-21T00:12:46;4.27;;;2.20;;
13339;SDS011;6739;47.398;8.774;2022-09-21T00:15:15;3.27;;;2.30;;
13339;SDS011;6739;47.398;8.774;2022-09-21T00:17:43;2.83;;;2.07;;
13339;SDS011;6739;47.398;8.774;2022-09-21T00:20:11;3.00;;;1.90;;
13339;SDS011;6739;47.398;8.774;2022-09-21T00:22:40;4.23;;;2.10;;
13339;SDS011;6739;47.398;8.774;2022-09-21T00:25:08;4.57;;;2.50;;
13339;SDS011;6739;47.398;8.774;2022-09-21T00:27:36;3.60;;;2.03;;
13339;SDS011;6739;47.398;8.774;2022-09-21T00:30:04;5.30;;;2.60;;
13339;SDS011;6739;47.398;8.774;2022-09-21T00:32:32;4.50;;;2.57;;
13339;SDS011;6739;47.398;8.774;2022-09-21T00:35:00;4.33;;;2.47;;
13339;SDS011;6739;47.398;8.774;2022-09-21T00:37:28;9.90;;;2.57;;
13339;SDS011;6739;47.398;8.774;2022-09-21T00:39:57;11.23;;;2.67;;
13339;SDS011;6739;47.398;8.774;2022-09-21T00:42:25;9.33;;;2.10;;
13339;SDS011;6739;47.398;8.774;2022-09-21T00:44:53;4.00;;;2.10;;
13339;SDS011;6739;47.398;8.774;2022-09-21T00:47:21;3.33;;;2.37;;
13339;SDS011;6739;47.398;8.774;2022-09-21T00:49:50;3.37;;;2.67;;
13339;SDS011;6739;47.398;8.774;2022-09-21T00:52:20;4.07;;;2.50;;
13339;SDS011;6739;47.398;8.774;2022-09-21T00:54:49;2.97;;;2.20;;
13339;SDS011;6739;47.398;8.774;2022-09-21T00:57:19;3.27;;;2.70;;
13339;SDS011;6739;47.398;8.774;2022-09-21T00:59:47;3.77;;;2.43;;
13339;SDS011;6739;47.398;8.774;2022-09-21T01:02:16;3.43;;;2.57;;
13339;SDS011;6739;47.398;8.774;2022-09-21T01:04:44;3.17;;;2.43;;
13339;SDS011;6739;47.398;8.774;2022-09-21T01:07:13;3.23;;;2.13;;
13339;SDS011;6739;47.398;8.774;2022-09-21T01:09:43;4.13;;;2.13;;
13339;SDS011;6739;47.398;8.774;2022-09-21T01:12:16;2.13;;;1.90;;
13339;SDS011;6739;47.398;8.774;2022-09-21T01:14:52;6.23;;;2.10;;
13339;SDS011;6739;47.398;8.774;2022-09-21T01:17:23;2.13;;;1.90;;
13339;SDS011;6739;47.398;8.774;2022-09-21T01:22:42;3.50;;;1.90;;
13339;SDS011;6739;47.398;8.774;2022-09-21T01:25:14;3.97;;;2.27;;
13339;SDS011;6739;47.398;8.774;2022-09-21T01:27:47;2.60;;;2.40;;
13339;SDS011;6739;47.398;8.774;2022-09-21T01:30:17;4.07;;;2.27;;
13339;SDS011;6739;47.398;8.774;2022-09-21T01:32:46;4.30;;;2.40;;
13339;SDS011;6739;47.398;8.774;2022-09-21T01:35:15;4.13;;;2.30;;
13339;SDS011;6739;47.398;8.774;2022-09-21T01:37:45;3.87;;;2.60;;
13339;SDS011;6739;47.398;8.774;2022-09-21T01:40:15;3.37;;;2.37;;
13339;SDS011;6739;47.398;8.774;2022-09-21T01:42:43;2.97;;;2.70;;
13339;SDS011;6739;47.398;8.774;2022-09-21T01:45:12;3.27;;;2.50;;
13339;SDS011;6739;47.398;8.774;2022-09-21T01:47:43;4.10;;;2.30;;
13339;SDS011;6739;47.398;8.774;2022-09-21T01:50:12;3.47;;;2.57;;
13339;SDS011;6739;47.398;8.774;2022-09-21T01:52:41;3.07;;;2.30;;
13339;SDS011;6739;47.398;8.774;2022-09-21T01:55:11;3.13;;;2.67;;
13339;SDS011;6739;47.398;8.774;2022-09-21T01:57:41;4.93;;;2.73;;
13339;SDS011;6739;47.398;8.774;2022-09-21T02:00:09;5.00;;;2.90;;
13339;SDS011;6739;47.398;8.774;2022-09-21T02:02:39;4.87;;;2.40;;
13339;SDS011;6739;47.398;8.774;2022-09-21T02:05:09;4.00;;;2.50;;
13339;SDS011;6739;47.398;8.774;2022-09-21T02:07:36;5.50;;;2.77;;
13339;SDS011;6739;47.398;8.774;2022-09-21T02:10:06;4.03;;;2.90;;
13339;SDS011;6739;47.398;8.774;2022-09-21T02:12:34;4.10;;;2.87;;
13339;SDS011;6739;47.398;8.774;2022-09-21T02:15:02;3.17;;;2.27;;
13339;SDS011;6739;47.398;8.774;2022-09-21T02:17:31;2.80;;;2.60;;
13339;SDS011;6739;47.398;8.774;2022-09-21T02:20:06;4.17;;;2.97;;
13339;SDS011;6739;47.398;8.774;2022-09-21T02:22:38;3.20;;;2.70;;
13339;SDS011;6739;47.398;8.774;2022-09-21T02:25:08;2.77;;;2.57;;
13339;SDS011;6739;47.398;8.774;2022-09-21T02:27:40;4.23;;;2.90;;
13339;SDS011;6739;47.398;8.774;2022-09-21T02:30:11;5.53;;;2.87;;
13339;SDS011;6739;47.398;8.774;2022-09-21T02:32:42;3.40;;;2.53;;
13339;SDS011;6739;47.398;8.774;2022-09-21T02:35:19;5.90;;;3.33;;
13339;SDS011;6739;47.398;8.774;2022-09-21T02:37:49;4.23;;;3.07;;
13339;SDS011;6739;47.398;8.774;2022-09-21T02:40:20;4.00;;;3.03;;
13339;SDS011;6739;47.398;8.774;2022-09-21T02:42:51;3.03;;;2.73;;
13339;SDS011;6739;47.398;8.774;2022-09-21T02:45:20;3.43;;;2.93;;
13339;SDS011;6739;47.398;8.774;2022-09-21T02:47:49;3.30;;;2.87;;
13339;SDS011;6739;47.398;8.774;2022-09-21T02:50:18;3.10;;;2.70;;
13339;SDS011;6739;47.398;8.774;2022-09-21T02:52:48;4.30;;;3.50;;
13339;SDS011;6739;47.398;8.774;2022-09-21T02:55:18;5.63;;;2.70;;
13339;SDS011;6739;47.398;8.774;2022-09-21T02:57:45;4.10;;;3.03;;
13339;SDS011;6739;47.398;8.774;2022-09-21T03:00:13;3.67;;;3.17;;
13339;SDS011;6739;47.398;8.774;2022-09-21T03:02:41;3.77;;;3.20;;
13339;SDS011;6739;47.398;8.774;2022-09-21T03:05:09;4.17;;;3.13;;
13339;SDS011;6739;47.398;8.774;2022-09-21T03:07:37;4.07;;;3.30;;
13339;SDS011;6739;47.398;8.774;2022-09-21T03:10:06;4.87;;;3.37;;
13339;SDS011;6739;47.398;8.774;2022-09-21T03:12:34;5.80;;;2.90;;
13339;SDS011;6739;47.398;8.774;2022-09-21T03:15:03;5.30;;;3.33;;
13339;SDS011;6739;47.398;8.774;2022-09-21T03:17:31;4.00;;;2.80;;
13339;SDS011;6739;47.398;8.774;2022-09-21T03:19:59;5.40;;;3.47;;
13339;SDS011;6739;47.398;8.774;2022-09-21T03:22:26;4.67;;;3.57;;
13339;SDS011;6739;47.398;8.774;2022-09-21T03:24:54;4.03;;;3.00;;
13339;SDS011;6739;47.398;8.774;2022-09-21T03:27:23;6.13;;;3.30;;
13339;SDS011;6739;47.398;8.774;2022-09-21T03:29:50;5.33;;;3.67;;
13339;SDS011;6739;47.398;8.774;2022-09-21T03:32:18;3.93;;;3.40;;
13339;SDS011;6739;47.398;8.774;2022-09-21T03:34:45;5.07;;;3.40;;
13339;SDS011;6739;47.398;8.774;2022-09-21T03:37:13;5.23;;;3.90;;
13339;SDS011;6739;47.398;8.774;2022-09-21T03:39:41;3.93;;;3.23;;
13339;SDS011;6739;47.398;8.774;2022-09-21T03:42:11;4.03;;;3.63;;
13339;SDS011;6739;47.398;8.774;2022-09-21T03:44:40;4.13;;;3.53;;
13339;SDS011;6739;47.398;8.774;2022-09-21T03:47:08;4.23;;;3.50;;
13339;SDS011;6739;47.398;8.774;2022-09-21T03:49:35;4.83;;;3.33;;
13339;SDS011;6739;47.398;8.774;2022-09-21T03:52:03;4.50;;;3.60;;
13339;SDS011;6739;47.398;8.774;2022-09-21T03:54:30;4.77;;;3.60;;
13339;SDS011;6739;47.398;8.774;2022-09-21T03:56:58;5.47;;;4.10;;
13339;SDS011;6739;47.398;8.774;2022-09-21T03:59:25;3.87;;;3.47;;
13339;SDS011;6739;47.398;8.774;2022-09-21T04:01:54;4.67;;;3.90;;
13339;SDS011;6739;47.398;8.774;2022-09-21T04:04:22;4.23;;;3.83;;
13339;SDS011;6739;47.398;8.774;2022-09-21T04:06:49;6.83;;;4.07;;
13339;SDS011;6739;47.398;8.774;2022-09-21T04:09:17;4.70;;;3.53;;
13339;SDS011;6739;47.398;8.774;2022-09-21T04:11:44;5.80;;;3.93;;
13339;SDS011;6739;47.398;8.774;2022-09-21T04:14:12;8.03;;;4.27;;
13339;SDS011;6739;47.398;8.774;2022-09-21T04:16:40;5.33;;;3.93;;
13339;SDS011;6739;47.398;8.774;2022-09-21T04:19:09;8.07;;;4.90;;
13339;SDS011;6739;47.398;8.774;2022-09-21T04:21:36;7.57;;;4.17;;
13339;SDS011;6739;47.398;8.774;2022-09-21T04:24:04;7.17;;;4.27;;
13339;SDS011;6739;47.398;8.774;2022-09-21T04:26:32;6.97;;;4.60;;
13339;SDS011;6739;47.398;8.774;2022-09-21T04:29:00;5.13;;;4.20;;
13339;SDS011;6739;47.398;8.774;2022-09-21T04:31:28;5.80;;;4.30;;
13339;SDS011;6739;47.398;8.774;2022-09-21T04:33:56;4.90;;;4.13;;
13339;SDS011;6739;47.398;8.774;2022-09-21T04:36:28;4.80;;;4.30;;
13339;SDS011;6739;47.398;8.774;2022-09-21T04:38:57;5.87;;;4.13;;
13339;SDS011;6739;47.398;8.774;2022-09-21T04:41:24;4.90;;;3.90;;
13339;SDS011;6739;47.398;8.774;2022-09-21T04:43:52;5.37;;;4.20;;
13339;SDS011;6739;47.398;8.774;2022-09-21T04:46:20;4.97;;;4.30;;
13339;SDS011;6739;47.398;8.774;2022-09-21T04:48:47;5.93;;;4.87;;
13339;SDS011;6739;47.398;8.774;2022-09-21T04:51:15;7.30;;;4.10;;
13339;SDS011;6739;47.398;8.774;2022-09-21T04:53:44;5.57;;;5.00;;
13339;SDS011;6739;47.398;8.774;2022-09-21T04:56:12;7.77;;;4.40;;
13339;SDS011;6739;47.398;8.774;2022-09-21T04:58:40;5.60;;;4.77;;
13339;SDS011;6739;47.398;8.774;2022-09-21T05:01:08;7.70;;;4.77;;
13339;SDS011;6739;47.398;8.774;2022-09-21T05:03:36;5.07;;;4.33;;
13339;SDS011;6739;47.398;8.774;2022-09-21T05:06:04;4.87;;;4.23;;
13339;SDS011;6739;47.398;8.774;2022-09-21T05:08:32;7.93;;;4.67;;
13339;SDS011;6739;47.398;8.774;2022-09-21T05:11:18;6.33;;;4.80;;
13339;SDS011;6739;47.398;8.774;2022-09-21T05:13:47;5.30;;;4.33;;
13339;SDS011;6739;47.398;8.774;2022-09-21T05:16:15;6.83;;;4.57;;
13339;SDS011;6739;47.398;8.774;2022-09-21T05:18:43;7.50;;;5.23;;
13339;SDS011;6739;47.398;8.774;2022-09-21T05:21:11;6.70;;;5.67;;
13339;SDS011;6739;47.398;8.774;2022-09-21T05:23:39;8.13;;;5.93;;
13339;SDS011;6739;47.398;8.774;2022-09-21T05:26:07;7.20;;;5.93;;
13339;SDS011;6739;47.398;8.774;2022-09-21T05:28:36;6.77;;;6.07;;
13339;SDS011;6739;47.398;8.774;2022-09-21T05:31:08;7.67;;;5.73;;
13339;SDS011;6739;47.398;8.774;2022-09-21T05:33:38;6.77;;;6.07;;
13339;SDS011;6739;47.398;8.774;2022-09-21T05:36:08;7.87;;;6.43;;
13339;SDS011;6739;47.398;8.774;2022-09-21T05:38:38;7.53;;;6.57;;
13339;SDS011;6739;47.398;8.774;2022-09-21T05:41:06;9.37;;;6.30;;
13339;SDS011;6739;47.398;8.774;2022-09-21T05:43:36;9.03;;;6.13;;
13339;SDS011;6739;47.398;8.774;2022-09-21T05:46:04;7.53;;;5.73;;
13339;SDS011;6739;47.398;8.774;2022-09-21T05:48:36;6.67;;;5.93;;
13339;SDS011;6739;47.398;8.774;2022-09-21T05:51:09;10.93;;;6.33;;
13339;SDS011;6739;47.398;8.774;2022-09-21T05:56:29;6.77;;;5.43;;
13339;SDS011;6739;47.398;8.774;2022-09-21T05:59:02;8.17;;;5.30;;
13339;SDS011;6739;47.398;8.774;2022-09-21T06:01:39;7.13;;;5.73;;
13339;SDS011;6739;47.398;8.774;2022-09-21T06:04:08;5.80;;;5.00;;
13339;SDS011;6739;47.398;8.774;2022-09-21T06:06:36;6.20;;;5.60;;
13339;SDS011;6739;47.398;8.774;2022-09-21T06:09:04;5.67;;;5.07;;
13339;SDS011;6739;47.398;8.774;2022-09-21T06:11:32;9.37;;;5.83;;
13339;SDS011;6739;47.398;8.774;2022-09-21T06:14:00;6.53;;;5.47;;
13339;SDS011;6739;47.398;8.774;2022-09-21T06:16:36;5.70;;;4.93;;
13339;SDS011;6739;47.398;8.774;2022-09-21T06:19:04;7.07;;;5.20;;
13339;SDS011;6739;47.398;8.774;2022-09-21T06:21:31;7.60;;;5.40;;
13339;SDS011;6739;47.398;8.774;2022-09-21T06:23:59;7.57;;;5.40;;
13339;SDS011;6739;47.398;8.774;2022-09-21T06:26:27;6.23;;;4.73;;
13339;SDS011;6739;47.398;8.774;2022-09-21T06:28:54;7.90;;;5.43;;
13339;SDS011;6739;47.398;8.774;2022-09-21T06:31:22;5.63;;;5.00;;
13339;SDS011;6739;47.398;8.774;2022-09-21T06:33:51;7.07;;;5.70;;
13339;SDS011;6739;47.398;8.774;2022-09-21T06:36:19;7.30;;;5.47;;
13339;SDS011;6739;47.398;8.774;2022-09-21T06:38:46;5.43;;;4.93;;
13339;SDS011;6739;47.398;8.774;2022-09-21T06:41:14;7.37;;;4.90;;
13339;SDS011;6739;47.398;8.774;2022-09-21T06:43:42;7.07;;;4.87;;
13339;SDS011;6739;47.398;8.774;2022-09-21T06:46:09;8.90;;;6.23;;
13339;SDS011;6739;47.398;8.774;2022-09-21T06:48:37;7.43;;;5.57;;
13339;SDS011;6739;47.398;8.774;2022-09-21T06:51:06;6.10;;;5.50;;
13339;SDS011;6739;47.398;8.774;2022-09-21T06:53:33;9.10;;;6.10;;
13339;SDS011;6739;47.398;8.774;2022-09-21T06:56:01;9.73;;;6.03;;
13339;SDS011;6739;47.398;8.774;2022-09-21T06:58:29;6.83;;;6.13;;
13339;SDS011;6739;47.398;8.774;2022-09-21T07:01:02;9.87;;;6.20;;
13339;SDS011;6739;47.398;8.774;2022-09-21T07:03:30;7.60;;;6.80;;
13339;SDS011;6739;47.398;8.774;2022-09-21T07:05:58;9.33;;;6.50;;
13339;SDS011;6739;47.398;8.774;2022-09-21T07:08:27;9.67;;;6.33;;
13339;SDS011;6739;47.398;8.774;2022-09-21T07:10:56;6.60;;;5.63;;
13339;SDS011;6739;47.398;8.774;2022-09-21T07:13:24;8.87;;;6.63;;
13339;SDS011;6739;47.398;8.774;2022-09-21T07:15:52;7.63;;;5.80;;
13339;SDS011;6739;47.398;8.774;2022-09-21T07:18:20;5.70;;;5.20;;
13339;SDS011;6739;47.398;8.774;2022-09-21T07:20:49;6.10;;;5.50;;
13339;SDS011;6739;47.398;8.774;2022-09-21T07:23:17;6.77;;;5.67;;
13339;SDS011;6739;47.398;8.774;2022-09-21T07:25:47;5.73;;;5.10;;
13339;SDS011;6739;47.398;8.774;2022-09-21T07:28:15;6.70;;;5.30;;
13339;SDS011;6739;47.398;8.774;2022-09-21T07:30:43;6.37;;;5.20;;
13339;SDS011;6739;47.398;8.774;2022-09-21T07:33:10;4.73;;;4.33;;
13339;SDS011;6739;47.398;8.774;2022-09-21T07:35:38;6.00;;;4.53;;
13339;SDS011;6739;47.398;8.774;2022-09-21T07:38:06;7.03;;;4.13;;
13339;SDS011;6739;47.398;8.774;2022-09-21T07:40:34;5.70;;;3.83;;
13339;SDS011;6739;47.398;8.774;2022-09-21T07:43:03;4.07;;;3.30;;
13339;SDS011;6739;47.398;8.774;2022-09-21T07:45:31;3.63;;;3.33;;
13339;SDS011;6739;47.398;8.774;2022-09-21T07:48:01;4.03;;;3.00;;
13339;SDS011;6739;47.398;8.774;2022-09-21T07:50:28;3.00;;;2.77;;
13339;SDS011;6739;47.398;8.774;2022-09-21T07:52:57;3.37;;;2.93;;
13339;SDS011;6739;47.398;8.774;2022-09-21T07:55:25;3.60;;;3.30;;
13339;SDS011;6739;47.398;8.774;2022-09-21T07:57:52;3.30;;;3.00;;
13339;SDS011;6739;47.398;8.774;2022-09-21T08:00:41;4.17;;;3.00;;
13339;SDS011;6739;47.398;8.774;2022-09-21T08:03:09;3.63;;;2.90;;
13339;SDS011;6739;47.398;8.774;2022-09-21T08:05:37;4.33;;;2.77;;
13339;SDS011;6739;47.398;8.774;2022-09-21T08:08:05;5.87;;;3.40;;
13339;SDS011;6739;47.398;8.774;2022-09-21T08:13:00;3.27;;;2.70;;
13339;SDS011;6739;47.398;8.774;2022-09-21T08:15:28;3.40;;;2.80;;
13339;SDS011;6739;47.398;8.774;2022-09-21T08:17:57;3.17;;;2.87;;
13339;SDS011;6739;47.398;8.774;2022-09-21T08:20:27;3.53;;;2.80;;
13339;SDS011;6739;47.398;8.774;2022-09-21T08:22:54;2.97;;;2.60;;
13339;SDS011;6739;47.398;8.774;2022-09-21T08:25:22;2.57;;;2.27;;
13339;SDS011;6739;47.398;8.774;2022-09-21T08:27:50;3.77;;;2.70;;
13339;SDS011;6739;47.398;8.774;2022-09-21T08:30:17;2.77;;;2.43;;
13339;SDS011;6739;47.398;8.774;2022-09-21T08:32:45;2.60;;;2.37;;
13339;SDS011;6739;47.398;8.774;2022-09-21T08:35:14;2.73;;;2.53;;
13339;SDS011;6739;47.398;8.774;2022-09-21T08:37:43;2.53;;;2.33;;
13339;SDS011;6739;47.398;8.774;2022-09-21T08:40:11;2.93;;;2.60;;
13339;SDS011;6739;47.398;8.774;2022-09-21T08:42:43;2.80;;;2.60;;
13339;SDS011;6739;47.398;8.774;2022-09-21T08:45:12;3.90;;;2.70;;
13339;SDS011;6739;47.398;8.774;2022-09-21T08:47:42;4.10;;;2.87;;
13339;SDS011;6739;47.398;8.774;2022-09-21T08:52:56;3.10;;;2.30;;
13339;SDS011;6739;47.398;8.774;2022-09-21T08:55:25;2.97;;;2.43;;
13339;SDS011;6739;47.398;8.774;2022-09-21T08:57:52;3.23;;;2.47;;
13339;SDS011;6739;47.398;8.774;2022-09-21T09:00:20;2.70;;;2.45;;
13339;SDS011;6739;47.398;8.774;2022-09-21T09:03:03;2.83;;;2.40;;
13339;SDS011;6739;47.398;8.774;2022-09-21T09:05:37;3.67;;;2.97;;
13339;SDS011;6739;47.398;8.774;2022-09-21T09:08:14;3.25;;;2.60;;
13339;SDS011;6739;47.398;8.774;2022-09-21T09:10:47;2.95;;;2.65;;
13339;SDS011;6739;47.398;8.774;2022-09-21T09:13:31;3.28;;;2.72;;
13339;SDS011;6739;47.398;8.774;2022-09-21T09:16:03;4.18;;;2.58;;
13339;SDS011;6739;47.398;8.774;2022-09-21T09:18:33;2.50;;;2.30;;
13339;SDS011;6739;47.398;8.774;2022-09-21T09:21:02;2.42;;;2.22;;
13339;SDS011;6739;47.398;8.774;2022-09-21T09:23:33;2.55;;;2.30;;
13339;SDS011;6739;47.398;8.774;2022-09-21T09:26:05;2.97;;;2.10;;
13339;SDS011;6739;47.398;8.774;2022-09-21T09:28:33;2.55;;;2.35;;
13339;SDS011;6739;47.398;8.774;2022-09-21T09:31:04;2.42;;;2.20;;
13339;SDS011;6739;47.398;8.774;2022-09-21T09:33:38;2.40;;;2.20;;
13339;SDS011;6739;47.398;8.774;2022-09-21T09:36:08;2.50;;;2.30;;
13339;SDS011;6739;47.398;8.774;2022-09-21T09:38:39;3.05;;;2.45;;
13339;SDS011;6739;47.398;8.774;2022-09-21T09:41:18;2.92;;;2.38;;
13339;SDS011;6739;47.398;8.774;2022-09-21T09:43:50;3.50;;;1.90;;
13339;SDS011;6739;47.398;8.774;2022-09-21T09:46:21;3.53;;;2.25;;
13339;SDS011;6739;47.398;8.774;2022-09-21T09:49:00;3.40;;;2.50;;
13339;SDS011;6739;47.398;8.774;2022-09-21T09:51:30;2.40;;;2.20;;
13339;SDS011;6739;47.398;8.774;2022-09-21T09:54:07;4.15;;;2.25;;
13339;SDS011;6739;47.398;8.774;2022-09-21T09:56:38;2.15;;;1.95;;
13339;SDS011;6739;47.398;8.774;2022-09-21T09:59:08;4.68;;;2.40;;
13339;SDS011;6739;47.398;8.774;2022-09-21T10:01:38;4.25;;;2.50;;
13339;SDS011;6739;47.398;8.774;2022-09-21T10:04:07;2.20;;;2.00;;
13339;SDS011;6739;47.398;8.774;2022-09-21T10:06:35;3.67;;;1.80;;
13339;SDS011;6739;47.398;8.774;2022-09-21T10:09:18;2.20;;;2.00;;
13339;SDS011;6739;47.398;8.774;2022-09-21T10:11:46;3.92;;;1.92;;
13339;SDS011;6739;47.398;8.774;2022-09-21T10:14:15;2.97;;;1.92;;
13339;SDS011;6739;47.398;8.774;2022-09-21T10:16:44;1.98;;;1.77;;
13339;SDS011;6739;47.398;8.774;2022-09-21T10:19:13;2.00;;;1.80;;
13339;SDS011;6739;47.398;8.774;2022-09-21T10:21:42;1.92;;;1.75;;
13339;SDS011;6739;47.398;8.774;2022-09-21T10:24:16;1.77;;;1.60;;
13339;SDS011;6739;47.398;8.774;2022-09-21T10:26:46;1.83;;;1.73;;
13339;SDS011;6739;47.398;8.774;2022-09-21T10:29:18;2.42;;;1.98;;
13339;SDS011;6739;47.398;8.774;2022-09-21T10:31:54;1.83;;;1.73;;
13339;SDS011;6739;47.398;8.774;2022-09-21T10:34:22;1.90;;;1.80;;
13339;SDS011;6739;47.398;8.774;2022-09-21T10:36:51;1.70;;;1.60;;
13339;SDS011;6739;47.398;8.774;2022-09-21T10:39:21;1.67;;;1.42;;
13339;SDS011;6739;47.398;8.774;2022-09-21T10:41:51;1.75;;;1.65;;
13339;SDS011;6739;47.398;8.774;2022-09-21T10:44:19;1.42;;;1.33;;
13339;SDS011;6739;47.398;8.774;2022-09-21T10:46:47;2.78;;;1.50;;
13339;SDS011;6739;47.398;8.774;2022-09-21T10:49:18;1.33;;;1.23;;
13339;SDS011;6739;47.398;8.774;2022-09-21T10:51:46;1.60;;;1.50;;
13339;SDS011;6739;47.398;8.774;2022-09-21T10:54:16;3.65;;;1.40;;
13339;SDS011;6739;47.398;8.774;2022-09-21T10:56:53;1.60;;;1.50;;
13339;SDS011;6739;47.398;8.774;2022-09-21T10:59:23;1.40;;;1.30;;
13339;SDS011;6739;47.398;8.774;2022-09-21T11:01:51;1.45;;;1.33;;
13339;SDS011;6739;47.398;8.774;2022-09-21T11:04:21;1.40;;;1.30;;
13339;SDS011;6739;47.398;8.774;2022-09-21T11:06:51;1.48;;;1.38;;
13339;SDS011;6739;47.398;8.774;2022-09-21T11:09:21;1.70;;;1.10;;
13339;SDS011;6739;47.398;8.774;2022-09-21T11:11:51;1.98;;;1.30;;
13339;SDS011;6739;47.398;8.774;2022-09-21T11:14:30;1.45;;;1.35;;
13339;SDS011;6739;47.398;8.774;2022-09-21T11:17:02;1.25;;;1.15;;
13339;SDS011;6739;47.398;8.774;2022-09-21T11:19:32;2.63;;;1.60;;
13339;SDS011;6739;47.398;8.774;2022-09-21T11:22:03;1.50;;;1.40;;
13339;SDS011;6739;47.398;8.774;2022-09-21T11:24:36;1.30;;;1.30;;
13339;SDS011;6739;47.398;8.774;2022-09-21T11:27:05;3.05;;;1.60;;
13339;SDS011;6739;47.398;8.774;2022-09-21T11:29:46;1.20;;;1.10;;
13339;SDS011;6739;47.398;8.774;2022-09-21T11:32:21;1.25;;;1.15;;
13339;SDS011;6739;47.398;8.774;2022-09-21T11:35:07;1.40;;;1.30;;
13339;SDS011;6739;47.398;8.774;2022-09-21T11:37:43;1.40;;;1.30;;
13339;SDS011;6739;47.398;8.774;2022-09-21T11:40:17;1.30;;;1.20;;
13339;SDS011;6739;47.398;8.774;2022-09-21T11:42:52;1.33;;;1.20;;
13339;SDS011;6739;47.398;8.774;2022-09-21T11:45:25;1.70;;;1.20;;
13339;SDS011;6739;47.398;8.774;2022-09-21T11:48:00;1.67;;;1.27;;
13339;SDS011;6739;47.398;8.774;2022-09-21T11:50:32;1.65;;;1.23;;
13339;SDS011;6739;47.398;8.774;2022-09-21T11:53:06;1.30;;;1.20;;
13339;SDS011;6739;47.398;8.774;2022-09-21T11:56:00;2.03;;;1.42;;
13339;SDS011;6739;47.398;8.774;2022-09-21T11:58:32;1.65;;;1.40;;
13339;SDS011;6739;47.398;8.774;2022-09-21T12:01:07;1.90;;;1.50;;
13339;SDS011;6739;47.398;8.774;2022-09-21T12:03:43;1.65;;;1.30;;
13339;SDS011;6739;47.398;8.774;2022-09-21T12:06:16;1.45;;;1.35;;
13339;SDS011;6739;47.398;8.774;2022-09-21T12:08:56;1.48;;;1.30;;
13339;SDS011;6739;47.398;8.774;2022-09-21T12:11:30;1.33;;;1.20;;
13339;SDS011;6739;47.398;8.774;2022-09-21T12:14:00;3.45;;;1.67;;
13339;SDS011;6739;47.398;8.774;2022-09-21T12:16:33;1.10;;;1.10;;
13339;SDS011;6739;47.398;8.774;2022-09-21T12:19:04;1.20;;;1.10;;
13339;SDS011;6739;47.398;8.774;2022-09-21T12:21:34;0.90;;;0.90;;
13339;SDS011;6739;47.398;8.774;2022-09-21T12:24:03;1.90;;;0.95;;
13339;SDS011;6739;47.398;8.774;2022-09-21T12:26:36;2.25;;;1.40;;
13339;SDS011;6739;47.398;8.774;2022-09-21T12:29:06;1.15;;;1.05;;
13339;SDS011;6739;47.398;8.774;2022-09-21T12:31:41;1.40;;;1.30;;
13339;SDS011;6739;47.398;8.774;2022-09-21T12:34:12;2.63;;;1.42;;
13339;SDS011;6739;47.398;8.774;2022-09-21T12:36:41;1.00;;;1.00;;
13339;SDS011;6739;47.398;8.774;2022-09-21T12:39:12;1.63;;;1.20;;
13339;SDS011;6739;47.398;8.774;2022-09-21T12:41:43;1.27;;;1.17;;
13339;SDS011;6739;47.398;8.774;2022-09-21T12:44:15;1.40;;;1.00;;
13339;SDS011;6739;47.398;8.774;2022-09-21T12:46:47;1.58;;;1.13;;
13339;SDS011;6739;47.398;8.774;2022-09-21T12:49:16;1.45;;;1.08;;
13339;SDS011;6739;47.398;8.774;2022-09-21T12:51:47;1.40;;;1.17;;
13339;SDS011;6739;47.398;8.774;2022-09-21T12:54:19;2.40;;;1.33;;
13339;SDS011;6739;47.398;8.774;2022-09-21T12:56:52;1.37;;;1.20;;
13339;SDS011;6739;47.398;8.774;2022-09-21T12:59:24;2.37;;;1.20;;
13339;SDS011;6739;47.398;8.774;2022-09-21T13:01:58;1.57;;;1.10;;
13339;SDS011;6739;47.398;8.774;2022-09-21T13:04:39;1.77;;;1.30;;
13339;SDS011;6739;47.398;8.774;2022-09-21T13:07:24;1.83;;;1.40;;
13339;SDS011;6739;47.398;8.774;2022-09-21T13:09:57;3.23;;;1.30;;
13339;SDS011;6739;47.398;8.774;2022-09-21T13:12:26;1.80;;;1.30;;
13339;SDS011;6739;47.398;8.774;2022-09-21T13:14:58;2.40;;;1.10;;
13339;SDS011;6739;47.398;8.774;2022-09-21T13:17:30;0.90;;;0.90;;
13339;SDS011;6739;47.398;8.774;2022-09-21T13:19:59;1.47;;;1.10;;
13339;SDS011;6739;47.398;8.774;2022-09-21T13:22:29;2.13;;;1.00;;
13339;SDS011;6739;47.398;8.774;2022-09-21T13:24:59;1.80;;;1.13;;
13339;SDS011;6739;47.398;8.774;2022-09-21T13:30:27;2.03;;;0.77;;
13339;SDS011;6739;47.398;8.774;2022-09-21T13:32:58;1.73;;;1.23;;
13339;SDS011;6739;47.398;8.774;2022-09-21T13:38:22;2.27;;;1.00;;
13339;SDS011;6739;47.398;8.774;2022-09-21T13:40:55;2.13;;;1.00;;
13339;SDS011;6739;47.398;8.774;2022-09-21T13:43:24;1.83;;;1.13;;
13339;SDS011;6739;47.398;8.774;2022-09-21T13:46:21;1.20;;;1.10;;
13339;SDS011;6739;47.398;8.774;2022-09-21T13:49:14;1.90;;;0.90;;
13339;SDS011;6739;47.398;8.774;2022-09-21T13:51:49;3.17;;;1.23;;
13339;SDS011;6739;47.398;8.774;2022-09-21T13:54:17;0.73;;;0.73;;
13339;SDS011;6739;47.398;8.774;2022-09-21T13:56:51;1.33;;;1.20;;
13339;SDS011;6739;47.398;8.774;2022-09-21T13:59:23;2.10;;;1.30;;
13339;SDS011;6739;47.398;8.774;2022-09-21T14:01:52;2.13;;;1.23;;
13339;SDS011;6739;47.398;8.774;2022-09-21T14:04:23;1.73;;;1.10;;
13339;SDS011;6739;47.398;8.774;2022-09-21T14:06:52;1.33;;;1.23;;
13339;SDS011;6739;47.398;8.774;2022-09-21T14:09:22;1.87;;;0.97;;
13339;SDS011;6739;47.398;8.774;2022-09-21T14:11:53;1.30;;;1.20;;
13339;SDS011;6739;47.398;8.774;2022-09-21T14:14:23;2.73;;;1.13;;
13339;SDS011;6739;47.398;8.774;2022-09-21T14:16:52;1.77;;;1.20;;
13339;SDS011;6739;47.398;8.774;2022-09-21T14:27:37;1.77;;;1.03;;
13339;SDS011;6739;47.398;8.774;2022-09-21T14:30:15;2.07;;;1.00;;
13339;SDS011;6739;47.398;8.774;2022-09-21T14:32:44;2.43;;;0.83;;
13339;SDS011;6739;47.398;8.774;2022-09-21T14:35:14;1.50;;;1.10;;
13339;SDS011;6739;47.398;8.774;2022-09-21T14:37:44;2.27;;;1.13;;
13339;SDS011;6739;47.398;8.774;2022-09-21T14:40:15;1.60;;;1.10;;
13339;SDS011;6739;47.398;8.774;2022-09-21T14:42:45;0.93;;;0.90;;
13339;SDS011;6739;47.398;8.774;2022-09-21T14:45:16;1.13;;;1.00;;
13339;SDS011;6739;47.398;8.774;2022-09-21T14:47:48;1.53;;;1.20;;
13339;SDS011;6739;47.398;8.774;2022-09-21T14:50:20;2.97;;;1.30;;
13339;SDS011;6739;47.398;8.774;2022-09-21T14:52:54;0.90;;;0.80;;
13339;SDS011;6739;47.398;8.774;2022-09-21T14:55:26;1.37;;;1.10;;
13339;SDS011;6739;47.398;8.774;2022-09-21T15:00:41;1.33;;;0.97;;
13339;SDS011;6739;47.398;8.774;2022-09-21T15:03:35;2.20;;;1.40;;
13339;SDS011;6739;47.398;8.774;2022-09-21T15:06:09;1.53;;;1.30;;
13339;SDS011;6739;47.398;8.774;2022-09-21T15:08:53;1.10;;;0.73;;
13339;SDS011;6739;47.398;8.774;2022-09-21T15:11:41;3.80;;;1.10;;
13339;SDS011;6739;47.398;8.774;2022-09-21T15:14:16;1.53;;;1.43;;
13339;SDS011;6739;47.398;8.774;2022-09-21T15:16:48;1.57;;;1.20;;
13339;SDS011;6739;47.398;8.774;2022-09-21T15:19:22;1.83;;;1.20;;
13339;SDS011;6739;47.398;8.774;2022-09-21T15:21:51;2.43;;;1.00;;
13339;SDS011;6739;47.398;8.774;2022-09-21T15:24:21;1.60;;;0.97;;
13339;SDS011;6739;47.398;8.774;2022-09-21T15:26:50;2.07;;;0.80;;
13339;SDS011;6739;47.398;8.774;2022-09-21T15:29:19;3.37;;;1.13;;
13339;SDS011;6739;47.398;8.774;2022-09-21T15:31:50;2.80;;;1.20;;
13339;SDS011;6739;47.398;8.774;2022-09-21T15:34:18;0.80;;;0.80;;
13339;SDS011;6739;47.398;8.774;2022-09-21T15:36:45;1.70;;;1.00;;
13339;SDS011;6739;47.398;8.774;2022-09-21T15:39:22;1.33;;;0.93;;
13339;SDS011;6739;47.398;8.774;2022-09-21T15:41:53;1.40;;;1.20;;
13339;SDS011;6739;47.398;8.774;2022-09-21T15:44:30;2.10;;;1.07;;
13339;SDS011;6739;47.398;8.774;2022-09-21T15:46:59;3.80;;;1.13;;